Aktualne dane pomiarowe

Uwaga, wersja testowa! Automatyczne pobieranie danych za pomocą narzędzi lub skryptów to umożliwiających jest zabronione.

Dane meteo z obszaru Polski uzyskane na podstawie depesz SYNOP pobieranych co godzinę z NWS. Najedź myszką na symbol przedstawiony w tabeli, aby uzyskać informacje co do jego znaczenia. Prosimy pamiętać, że to testowa wersja strony, która jeszcze nie jest ukończona. Stworzono również jest krótki FAQ dotyczący korzystania z tej podstrony Anomalie temperatury w chwili obecnej odniesione są do okresu referencyjnego 1951-2016. Okres ten będzie później zmieniony na 1981-2010. Kliknij ikonę aby pobrać plik CSV. Kliknij ikonę aby wygenerować mapę synoptyczną dla danego terminu.

Wybierz Datę:    

        

Rzeszów-Jasionka (12580)

Dane terminowe dla wybranej stacji. Kliknij datę, aby otrzymać dane z tego terminu dla wszystkich stacji.

TemperaturaZachmurzenieWiatrCiśnienieOpadyPogoda
 Data t td wb tx tn tg rh  Nt Nl Cl Cm Ch ws wd g1 g2 wx mslp ppp ch 24h 12h t ww ww w1 w2  
2019-07-12 23:00:00 14.2 9.2 11.1--- 7230.0wx-wx2wx--21010.6 984.9 -0.1---------
2019-07-12 22:00:00 13.7 9.3 10.9--- 7530.0wx-wx2wx---1010.7 984.9 0.0---------
2019-07-12 21:00:00 16.5 9.7 12.3--- 6430.0wx-wx2wx--21010.4 984.9 0.3---------
2019-07-12 20:00:00 16.4 9.6 12.3--- 6430.0wx-wx0---01010.5 985.0 0.5---------
2019-07-12 19:00:00 18.2 8.7 12.6--- 5430.0wx-wx0---01010.3 984.9 0.4---------
2019-07-12 18:00:00 20.6 7.6 13.3 24.2 16.1- 4330.0wx-wx1wx--11009.8 984.6 -0.2- 0.012------
2019-07-12 17:00:00 21.8 6.1 13.2--- 3630.0wxwxwxwxwx1wx--11009.6 984.5 -0.8---------
2019-07-12 16:00:00 23.2 5.1 13.4--- 3130.0wxwxwxwxwx2wx--21009.4 984.5 -1.0---------
2019-07-12 15:00:00 23.8 5.2 13.7--- 3030.0wxwxwxwx2wx--21009.7 984.8 -1.0---------
2019-07-12 14:00:00 23.4 5.8 13.8--- 3230.0wxwxwxwx1wx--11010.2 985.3 -0.7---------
2019-07-12 13:00:00 22.9 4.9 13.2--- 3130.0wxwxwxwx1wx--11010.5 985.5 -0.9---------
2019-07-12 12:00:00 22.3 5.7 13.2--- 3430.0wxwxwxwx2wx-1021010.9 985.8 -0.8- 0.06------
2019-07-12 11:00:00 21.6 3.7 12.2--- 3130.0wxwxwxwx2wx--21011.1 986.0 -0.8---------
2019-07-12 10:00:00 21.2 5.9 12.8--- 3730.0wxwxwxwx4wx-1041011.6 986.4 -0.5---------
2019-07-12 09:00:00 21.0 7.9 13.6--- 4330.0wxwxwxwx3wx8831011.8 986.6 -0.4---------
2019-07-12 08:00:00 20.2 7.9 13.2--- 4530.0wxwxwxwx3wx--31012.1 986.8 -0.2---------
2019-07-12 07:00:00 18.5 7.9 12.4--- 5030.0wx-wx3wx--31012.3 986.9 -0.1---------
2019-07-12 06:00:00 16.1 8.8 11.7 17.8 7.3 4 6230.0wx-wx3wx--31012.6 987.0 0.2 0.1 0.012------
2019-07-12 05:00:00 12.2 10.4 11.0--- 8930.0wx-wx2wx---1013.0 987.0 0.3---------
2019-07-12 04:00:00 9.5 9.0 9.1--- 9730.0wx-wx2wx--21013.2 987.0 0.1---------
2019-07-12 03:00:00 7.8 7.5 7.5--- 9830.0wx-wx2wx--21013.2 986.8 -0.2---------
2019-07-12 02:00:00 8.3 7.9 8.0--- 9730.0wx-2wx--21013.0 986.7 -0.4---------
2019-07-12 01:00:00 8.3 8.0 8.0--- 9830.0wx-2wx--21013.2 986.9 -0.4---------
2019-07-12 00:00:00 8.8 8.2 8.3--- 9630.0wx-3wx--31013.3 987.0 -0.2- 0.06------
2019-07-11 23:00:00 9.8 8.9 9.1--- 9430.0wx-2wx--21013.3 987.1 0.1---------
2019-07-11 22:00:00 10.3 9.4 9.6--- 9430.0wxwxwx3wx--31013.5 987.3 0.7---------
2019-07-11 21:00:00 11.0 8.6 9.4--- 8530.0wxwxwx2wx--21013.3 987.2 1.1---------
2019-07-11 20:00:00 13.3 9.0 10.6--- 7530.0wxwxwxwx2wx--21012.9 987.0 1.2---------
2019-07-11 19:00:00 15.3 9.0 11.5--- 6630.0wxwxwxwx1wx--11012.3 986.6 1.0---------
2019-07-11 18:00:00 17.8 8.4 12.3 19.8 12.5- 5430.0wxwxwxwx3wx-931011.6 986.1 0.4- 0.112------
2019-07-11 17:00:00 18.9 7.6 12.5--- 4830.0wxwxwxwx5wx--51011.1 985.8 0.2---------
2019-07-11 16:00:00 19.1 7.5 12.5--- 4730.0wxwxwxwx4wx-941010.9 985.6 0.2---------
2019-07-11 15:00:00 18.6 8.3 12.6--- 5130.0wxwxwxwx3wx9931011.1 985.7 0.4---------
2019-07-11 14:00:00 18.1 8.4 12.5--- 5330.0wxwxwx4wx--41011.0 985.6 0.0---------
2019-07-11 13:00:00 17.3 9.5 12.6--- 6030.0wxwxwx4wx-841010.9 985.4 -0.4---------
2019-07-11 12:00:00 18.5 7.3 12.2--- 4830.0wxwxwxwx5wx-851010.7 985.3 -0.9- 0.16wx-w1--
2019-07-11 11:00:00 16.6 8.5 11.8--- 5930.0wxwxwxwx4wx--41011.1 985.6 -0.7---------
2019-07-11 10:00:00 14.9 10.7 12.2--- 7630.0wxwxwx4wx--41011.5 985.8 -0.3---wx---
2019-07-11 09:00:00 15.2 9.5 11.7--- 6930.0wxwxwx4wx--41011.9 986.2 0.0---wx---
2019-07-11 08:00:00 15.0 11.2 12.5--- 7830.0wxwxwxwx5wx--51012.0 986.3 0.4---------
2019-07-11 07:00:00 12.9 11.0 11.6--- 8820.0wxwxwx4wx---1012.0 986.1 -0.1---wx-w1--
2019-07-11 06:00:00 12.7 10.2 11.0 14.2 11.2 8 8530.0wxwxwx4wx-1041012.1 986.2 0.1 0.4-12wx-w1--
2019-07-11 05:00:00 13.0 10.5 11.3--- 8530.0wxwxwxwx5wx--51011.8 985.9 0.0---------
2019-07-11 04:00:00 12.0 10.6 11.0--- 9130.0wxwxwx5wx--51012.2 986.2 -0.2---wx---
2019-07-11 03:00:00 11.8 10.2 10.7--- 9020.0wxwxwx5wx101051012.1 986.1 -0.6---wx---
2019-07-11 02:00:00 11.4 10.0 10.4--- 9130.0wxwxwx5wx--51011.9 985.9 -0.7---------
2019-07-11 01:00:00 11.3 9.4 10.0--- 8830.0wxwxwx5wx--51012.4 986.4 -0.3---------
2019-07-11 00:00:00 12.3 10.0 10.7--- 8630.0wxwxwx6wx--61012.7 986.7 -0.2- 0.06------
1.2 ms

 

Print Friendly, PDF & Email